Time;durP1;ratioP1;P1;durP2;ratioP2;P2;SDS_P1;SDS_P2;PMS_P1;PMS_P2;Temp;Humidity;BMP_temperature;BMP_pressure;BME280_temperature;BME280_humidity;BME280_pressure;Samples;Min_cycle;Max_cycle;Signal;HPM_P1;HPM_P2
2021/03/05 00:01:08;;;;;;;7.27;2.67;;;2.60;99.90;;;;;;4976309;28;20721;-77
2021/03/05 00:03:34;;;;;;;2.93;2.53;;;2.60;99.90;;;;;;4998512;28;20702;-79
2021/03/05 00:06:00;;;;;;;3.50;2.50;;;2.60;99.90;;;;;;4980960;28;20220;-78
2021/03/05 00:08:25;;;;;;;3.23;2.63;;;2.50;99.90;;;;;;4988557;28;20181;-76
2021/03/05 00:10:52;;;;;;;3.87;2.70;;;2.50;99.90;;;;;;4980964;28;20722;-80
2021/03/05 00:13:21;;;;;;;3.10;2.17;;;2.50;99.90;;;;;;4981398;28;21110;-79
2021/03/05 00:15:47;;;;;;;3.50;2.33;;;2.50;99.90;;;;;;4988006;28;20195;-79
2021/03/05 00:18:13;;;;;;;3.50;2.27;;;2.50;99.90;;;;;;4983157;28;20196;-78
2021/03/05 00:20:42;;;;;;;3.07;2.47;;;2.40;99.90;;;;;;4988252;28;20216;-79
2021/03/05 00:23:08;;;;;;;2.50;1.97;;;2.40;99.90;;;;;;4982561;28;20303;-76
2021/03/05 00:25:34;;;;;;;4.10;2.93;;;2.40;99.90;;;;;;4988238;28;20671;-81
2021/03/05 00:28:00;;;;;;;2.60;2.23;;;2.40;99.90;;;;;;4995877;28;20204;-80
2021/03/05 00:30:26;;;;;;;2.93;2.30;;;2.40;99.90;;;;;;4979675;28;20352;-80
2021/03/05 00:32:52;;;;;;;5.03;3.73;;;2.40;99.90;;;;;;4980663;28;20217;-77
2021/03/05 00:35:19;;;;;;;2.57;2.10;;;2.50;99.90;;;;;;4988781;28;20193;-79
2021/03/05 00:37:45;;;;;;;7.83;3.27;;;2.50;99.90;;;;;;4988192;28;20196;-77
2021/03/05 00:40:14;;;;;;;3.80;2.83;;;2.40;99.90;;;;;;4988697;28;20215;-79
2021/03/05 00:42:41;;;;;;;3.20;2.77;;;2.40;99.90;;;;;;4981454;28;21156;-80
2021/03/05 00:45:08;;;;;;;3.93;2.67;;;2.50;99.90;;;;;;4989006;28;20690;-79
2021/03/05 00:47:34;;;;;;;3.23;2.20;;;2.50;99.90;;;;;;4987368;28;20650;-77
2021/03/05 00:50:00;;;;;;;3.57;2.40;;;2.50;99.90;;;;;;4987625;28;20212;-77
2021/03/05 00:52:25;;;;;;;4.30;3.47;;;2.40;99.90;;;;;;4980171;28;20203;-78
2021/03/05 00:54:51;;;;;;;4.07;3.13;;;2.40;99.90;;;;;;4982861;28;20568;-78
2021/03/05 00:57:17;;;;;;;3.30;2.03;;;2.40;99.90;;;;;;4988885;28;20219;-78
2021/03/05 00:59:42;;;;;;;4.07;2.97;;;2.40;99.90;;;;;;4988773;28;20188;-78
2021/03/05 01:02:08;;;;;;;6.33;3.03;;;2.40;99.90;;;;;;4979243;28;20223;-79
2021/03/05 01:04:33;;;;;;;5.63;3.47;;;2.50;99.90;;;;;;4989474;28;20204;-78
2021/03/05 01:06:59;;;;;;;4.03;3.10;;;2.40;99.90;;;;;;4988383;28;20947;-78
2021/03/05 01:09:25;;;;;;;3.27;2.50;;;2.40;99.90;;;;;;4998217;28;20177;-80
2021/03/05 01:11:50;;;;;;;3.37;2.17;;;2.40;99.90;;;;;;4988031;28;20222;-77
2021/03/05 01:14:17;;;;;;;2.97;2.17;;;2.40;99.90;;;;;;4982513;28;20569;-77
2021/03/05 01:16:42;;;;;;;3.80;2.63;;;2.40;99.90;;;;;;4986330;28;20189;-77
2021/03/05 01:19:10;;;;;;;4.17;2.40;;;2.40;99.90;;;;;;4982307;28;20292;-80
2021/03/05 01:21:36;;;;;;;3.50;2.47;;;2.40;99.90;;;;;;4981087;28;20227;-77
2021/03/05 01:24:02;;;;;;;5.90;2.73;;;2.30;99.90;;;;;;4981072;28;20185;-78
2021/03/05 01:26:28;;;;;;;3.20;2.17;;;2.30;99.90;;;;;;4980458;28;20223;-78
2021/03/05 01:28:54;;;;;;;3.63;2.83;;;2.30;99.90;;;;;;4987251;28;20189;-79
2021/03/05 01:31:20;;;;;;;3.10;1.93;;;2.30;99.90;;;;;;4978576;28;20203;-77
2021/03/05 01:33:45;;;;;;;3.77;2.30;;;2.30;99.90;;;;;;4988090;28;20207;-77
2021/03/05 01:36:11;;;;;;;1.63;1.47;;;2.30;99.90;;;;;;4988217;28;20647;-77
2021/03/05 01:38:37;;;;;;;4.03;2.53;;;2.30;99.90;;;;;;4988614;28;20192;-76
2021/03/05 01:41:04;;;;;;;4.00;2.43;;;2.20;99.90;;;;;;4996244;28;20212;-79
2021/03/05 01:43:38;;;;;;;3.93;2.97;;;2.20;99.90;;;;;;4976511;28;20210;-78
2021/03/05 01:46:04;;;;;;;3.23;2.17;;;2.20;99.90;;;;;;4981051;28;20654;-78
2021/03/05 01:48:31;;;;;;;2.63;1.90;;;2.20;99.90;;;;;;4981732;28;20181;-79
2021/03/05 01:50:59;;;;;;;2.40;2.00;;;2.10;99.90;;;;;;4981770;28;20231;-79
2021/03/05 01:53:25;;;;;;;5.53;3.13;;;2.10;99.90;;;;;;4979130;28;20621;-79
2021/03/05 01:55:51;;;;;;;3.07;2.27;;;2.10;99.90;;;;;;4987897;28;20235;-79
2021/03/05 01:58:18;;;;;;;3.23;2.20;;;2.00;99.90;;;;;;4986863;28;20189;-79
2021/03/05 02:00:49;;;;;;;2.60;2.23;;;1.90;99.90;;;;;;4985939;28;20209;-80
2021/03/05 02:03:15;;;;;;;5.40;2.37;;;1.90;99.90;;;;;;4980604;28;20216;-79
2021/03/05 02:05:41;;;;;;;3.13;2.03;;;1.80;99.90;;;;;;4979418;28;20188;-78
2021/03/05 02:08:08;;;;;;;2.67;1.70;;;1.80;99.90;;;;;;4986777;28;20185;-78
2021/03/05 02:10:34;;;;;;;3.57;2.90;;;1.70;99.90;;;;;;4979951;28;20185;-79
2021/03/05 02:12:59;;;;;;;2.90;2.07;;;1.70;99.90;;;;;;4980490;28;20230;-79
2021/03/05 02:15:25;;;;;;;3.73;2.43;;;1.70;99.90;;;;;;4978779;28;20223;-79
2021/03/05 02:18:14;;;;;;;3.27;2.13;;;1.60;99.90;;;;;;4977573;28;20184;-79
2021/03/05 02:21:05;;;;;;;3.53;2.63;;;1.60;99.90;;;;;;4977722;28;20226;-79
2021/03/05 02:23:48;;;;;;;2.07;1.80;;;1.60;99.90;;;;;;4986608;28;20215;-79
2021/03/05 02:26:26;;;;;;;3.13;2.13;;;1.60;99.90;;;;;;4986099;28;20195;-79
2021/03/05 02:28:58;;;;;;;3.23;2.40;;;1.60;99.90;;;;;;4987047;28;20184;-79
2021/03/05 02:31:36;;;;;;;3.23;2.17;;;1.60;99.90;;;;;;4978396;28;20188;-79
2021/03/05 02:34:06;;;;;;;2.87;2.40;;;1.60;99.90;;;;;;4980063;28;20196;-78
2021/03/05 02:36:42;;;;;;;4.23;2.80;;;1.60;99.90;;;;;;4977567;28;20595;-78
2021/03/05 02:39:10;;;;;;;3.30;2.47;;;1.50;99.90;;;;;;4979701;28;20181;-79
2021/03/05 02:41:39;;;;;;;2.80;1.90;;;1.50;99.90;;;;;;4978467;28;20232;-79
2021/03/05 02:44:07;;;;;;;4.07;2.50;;;1.50;99.90;;;;;;4986702;28;20858;-79
2021/03/05 02:46:34;;;;;;;2.57;2.00;;;1.50;99.90;;;;;;4987025;28;20215;-79
2021/03/05 02:49:03;;;;;;;2.70;2.30;;;1.50;99.90;;;;;;4980322;28;20271;-79
2021/03/05 02:51:32;;;;;;;5.50;2.73;;;1.50;99.90;;;;;;4986689;28;20210;-79
2021/03/05 02:54:00;;;;;;;2.40;2.13;;;1.50;99.90;;;;;;4979893;28;20196;-80
2021/03/05 02:56:28;;;;;;;2.87;2.20;;;1.40;99.90;;;;;;4979397;28;20666;-79
2021/03/05 02:58:55;;;;;;;3.40;2.50;;;1.40;99.90;;;;;;4979889;28;20247;-79
2021/03/05 03:01:24;;;;;;;3.20;2.40;;;1.40;99.90;;;;;;4986954;28;20272;-80
2021/03/05 03:03:55;;;;;;;4.13;2.83;;;1.40;99.90;;;;;;4980104;28;20173;-79
2021/03/05 03:06:23;;;;;;;4.40;2.10;;;1.40;99.90;;;;;;4978101;28;20216;-80
2021/03/05 03:08:50;;;;;;;3.50;2.53;;;1.40;99.90;;;;;;4977645;28;20219;-80
2021/03/05 03:11:18;;;;;;;4.20;2.67;;;1.40;99.90;;;;;;4977830;28;20250;-80
2021/03/05 03:13:46;;;;;;;5.47;3.83;;;1.30;99.90;;;;;;4976062;28;20208;-79
2021/03/05 03:16:14;;;;;;;2.50;2.10;;;1.30;99.90;;;;;;4990732;28;20188;-80
2021/03/05 03:18:41;;;;;;;3.57;2.20;;;1.30;99.90;;;;;;4985078;28;20192;-78
2021/03/05 03:21:07;;;;;;;2.80;1.77;;;1.40;99.90;;;;;;4976142;28;20217;-81
2021/03/05 03:23:34;;;;;;;3.87;3.20;;;1.30;99.90;;;;;;4976288;28;20278;-79
2021/03/05 03:26:01;;;;;;;3.87;3.03;;;1.30;99.90;;;;;;4985409;28;20299;-79
2021/03/05 03:28:26;;;;;;;2.57;2.07;;;1.30;99.90;;;;;;4985678;28;20184;-78
2021/03/05 03:30:52;;;;;;;2.60;1.87;;;1.20;99.90;;;;;;4978013;28;20589;-80
2021/03/05 03:33:18;;;;;;;2.77;2.17;;;1.10;99.90;;;;;;4978220;28;20203;-80
2021/03/05 03:35:44;;;;;;;2.90;2.57;;;1.10;99.90;;;;;;4979892;28;20200;-79
2021/03/05 03:38:11;;;;;;;2.00;1.73;;;1.10;99.90;;;;;;4982050;28;20188;-79
2021/03/05 03:40:39;;;;;;;2.73;2.03;;;1.00;99.90;;;;;;4981968;28;20215;-78
2021/03/05 03:43:05;;;;;;;3.20;2.53;;;1.00;99.90;;;;;;4981739;28;20287;-79
2021/03/05 03:45:32;;;;;;;4.50;2.40;;;0.90;99.90;;;;;;4987744;28;20177;-79
2021/03/05 03:47:59;;;;;;;3.07;2.40;;;0.90;99.90;;;;;;4980054;28;20180;-78
2021/03/05 03:50:32;;;;;;;2.30;2.07;;;0.90;99.90;;;;;;4994569;28;20220;-79
2021/03/05 03:53:03;;;;;;;2.93;2.30;;;0.90;99.90;;;;;;4980390;28;20747;-79
2021/03/05 03:55:29;;;;;;;2.37;2.13;;;0.80;99.90;;;;;;4979316;28;20183;-80
2021/03/05 03:57:56;;;;;;;3.90;2.20;;;0.80;99.90;;;;;;4981601;28;20655;-79
2021/03/05 04:00:23;;;;;;;3.87;2.43;;;0.80;99.90;;;;;;4982308;28;20250;-79
2021/03/05 04:02:55;;;;;;;4.40;2.63;;;0.80;99.90;;;;;;4985642;28;20212;-79
2021/03/05 04:05:30;;;;;;;2.53;1.93;;;0.80;99.90;;;;;;4991203;28;20195;-79
2021/03/05 04:07:56;;;;;;;3.70;2.40;;;0.80;99.90;;;;;;4981769;28;20599;-80
2021/03/05 04:10:23;;;;;;;4.13;2.67;;;0.80;99.90;;;;;;4983271;28;20199;-79
2021/03/05 04:12:50;;;;;;;3.53;2.67;;;0.80;99.90;;;;;;4983877;28;21138;-79
2021/03/05 04:15:17;;;;;;;2.80;2.07;;;0.80;99.90;;;;;;4985935;28;20789;-81
2021/03/05 04:17:44;;;;;;;2.37;1.90;;;0.80;99.90;;;;;;4980971;28;20189;-79
2021/03/05 04:20:14;;;;;;;1.70;1.37;;;0.80;99.90;;;;;;4981925;28;20184;-79
2021/03/05 04:22:45;;;;;;;3.90;2.37;;;0.90;99.90;;;;;;4988975;28;20226;-78
2021/03/05 04:25:15;;;;;;;3.30;3.00;;;0.80;99.90;;;;;;4989925;28;20220;-79
2021/03/05 04:27:41;;;;;;;3.47;2.43;;;0.80;99.90;;;;;;4990114;28;20213;-79
2021/03/05 04:30:08;;;;;;;4.23;2.83;;;0.70;99.90;;;;;;4984357;28;20817;-80
2021/03/05 04:32:33;;;;;;;3.37;2.63;;;0.60;99.90;;;;;;4995898;28;20212;-81
2021/03/05 04:34:59;;;;;;;4.33;2.77;;;0.60;99.90;;;;;;4987097;28;20195;-79
2021/03/05 04:37:25;;;;;;;4.03;2.97;;;0.50;99.90;;;;;;4980077;28;20197;-79
2021/03/05 04:39:51;;;;;;;4.13;2.13;;;0.50;99.90;;;;;;4980364;28;20193;-78
2021/03/05 04:42:16;;;;;;;3.43;3.03;;;0.50;99.90;;;;;;4979576;28;20220;-79
2021/03/05 04:44:42;;;;;;;2.30;2.10;;;0.40;99.90;;;;;;4980827;28;20187;-78
2021/03/05 04:47:08;;;;;;;3.60;1.93;;;0.40;99.90;;;;;;4984966;28;20192;-80
2021/03/05 04:49:33;;;;;;;2.50;2.00;;;0.20;99.90;;;;;;4979526;28;20247;-79
2021/03/05 04:51:59;;;;;;;1.93;1.63;;;0.20;99.90;;;;;;4981278;28;20225;-79
2021/03/05 04:54:24;;;;;;;1.60;1.50;;;0.10;99.90;;;;;;4987433;28;20195;-78
2021/03/05 04:56:50;;;;;;;3.40;2.80;;;0.10;99.90;;;;;;4980207;28;20200;-80
2021/03/05 04:59:16;;;;;;;1.80;1.37;;;0.10;99.90;;;;;;4987266;28;20284;-80
2021/03/05 05:01:41;;;;;;;1.83;1.70;;;0.00;99.90;;;;;;4985773;28;20628;-80
2021/03/05 05:04:07;;;;;;;2.27;1.73;;;-0.10;99.90;;;;;;4980185;28;20577;-80
2021/03/05 05:06:32;;;;;;;2.60;1.87;;;-0.10;99.90;;;;;;4987327;28;20291;-78
2021/03/05 05:08:58;;;;;;;1.67;1.53;;;-0.10;99.90;;;;;;4986655;28;20189;-81
2021/03/05 05:11:23;;;;;;;2.00;1.50;;;-0.10;99.90;;;;;;4987111;28;20185;-80
2021/03/05 05:13:49;;;;;;;2.10;1.27;;;-0.10;99.90;;;;;;4986876;28;20821;-79
2021/03/05 05:16:15;;;;;;;1.50;1.40;;;-0.20;99.90;;;;;;4979741;28;20285;-79
2021/03/05 05:18:40;;;;;;;1.83;1.67;;;-0.30;99.90;;;;;;4987052;28;20266;-79
2021/03/05 05:21:06;;;;;;;1.57;1.40;;;-0.20;99.90;;;;;;4985890;28;20220;-80
2021/03/05 05:23:31;;;;;;;1.67;1.57;;;-0.20;99.90;;;;;;4980781;28;20749;-79
2021/03/05 05:25:57;;;;;;;1.67;1.57;;;-0.30;99.90;;;;;;4986705;28;20192;-78
2021/03/05 05:28:22;;;;;;;2.43;1.20;;;-0.30;99.90;;;;;;4985550;28;20262;-79
2021/03/05 05:30:48;;;;;;;1.27;0.93;;;-0.40;99.90;;;;;;4980661;28;20189;-79
2021/03/05 05:33:14;;;;;;;1.67;1.53;;;-0.40;99.90;;;;;;4989144;28;20247;-78
2021/03/05 05:35:39;;;;;;;4.17;1.67;;;-0.40;99.90;;;;;;4989699;28;20196;-78
2021/03/05 05:38:05;;;;;;;1.80;1.37;;;-0.50;99.90;;;;;;4982558;28;20199;-79
2021/03/05 05:40:31;;;;;;;6.20;1.23;;;-0.60;99.90;;;;;;4987234;28;20244;-81
2021/03/05 05:42:57;;;;;;;1.57;0.90;;;-0.50;99.90;;;;;;4984453;28;20306;-81
2021/03/05 05:45:22;;;;;;;2.10;1.33;;;-0.50;99.90;;;;;;4990311;28;20192;-80
2021/03/05 05:47:48;;;;;;;1.00;0.83;;;-0.60;99.90;;;;;;4984367;28;20180;-78
2021/03/05 05:50:14;;;;;;;2.03;1.33;;;-0.60;99.90;;;;;;4983183;28;20196;-79
2021/03/05 05:52:41;;;;;;;0.90;0.90;;;-0.60;99.90;;;;;;4989107;28;20204;-80
2021/03/05 05:55:08;;;;;;;1.03;0.93;;;-0.70;99.90;;;;;;4988397;28;20185;-77
2021/03/05 05:57:37;;;;;;;4.23;0.90;;;-0.70;99.90;;;;;;4980823;28;20188;-79
2021/03/05 06:00:05;;;;;;;1.27;0.97;;;-0.80;99.90;;;;;;4981606;28;20263;-78
2021/03/05 06:02:32;;;;;;;1.10;0.87;;;-0.80;99.90;;;;;;4979251;28;20246;-79
2021/03/05 06:04:58;;;;;;;2.80;1.10;;;-0.90;99.90;;;;;;4988222;28;20192;-79
2021/03/05 06:07:24;;;;;;;0.97;0.83;;;-0.90;99.90;;;;;;4987831;28;20180;-79
2021/03/05 06:09:51;;;;;;;0.67;0.67;;;-0.90;99.90;;;;;;4980136;28;20191;-79
2021/03/05 06:12:17;;;;;;;0.63;0.63;;;-1.00;99.90;;;;;;4977877;28;20211;-79
2021/03/05 06:14:44;;;;;;;5.70;1.23;;;-1.00;99.90;;;;;;4996300;28;20303;-79
2021/03/05 06:17:10;;;;;;;1.03;0.87;;;-1.00;99.90;;;;;;4980675;28;20200;-80
2021/03/05 06:19:37;;;;;;;1.50;1.40;;;-1.00;99.90;;;;;;4984047;28;20185;-80
2021/03/05 06:22:16;;;;;;;0.70;0.70;;;-1.00;99.90;;;;;;4986152;28;20215;-79
2021/03/05 06:24:43;;;;;;;1.03;0.93;;;-1.00;99.90;;;;;;4981415;28;20188;-79
2021/03/05 06:27:09;;;;;;;0.87;0.83;;;-0.90;99.90;;;;;;4980460;28;20228;-78
2021/03/05 06:29:42;;;;;;;0.93;0.93;;;-0.90;99.90;;;;;;4981902;28;20207;-80
2021/03/05 06:32:09;;;;;;;1.83;1.73;;;-0.90;99.90;;;;;;4980942;28;20207;-79
2021/03/05 06:34:48;;;;;;;2.87;1.70;;;-0.90;99.90;;;;;;4982043;28;20196;-79
2021/03/05 06:37:15;;;;;;;2.33;1.77;;;-0.90;99.90;;;;;;4987566;28;20199;-81
2021/03/05 06:39:41;;;;;;;1.67;1.07;;;-0.90;99.90;;;;;;4993944;28;20199;-79
2021/03/05 06:42:12;;;;;;;0.70;0.70;;;-0.80;99.90;;;;;;4980151;28;20243;-79
2021/03/05 06:44:43;;;;;;;1.53;0.97;;;-0.80;99.90;;;;;;4979121;28;20176;-79
2021/03/05 06:47:13;;;;;;;1.00;0.80;;;-0.90;99.90;;;;;;4982034;28;20182;-79
2021/03/05 06:49:41;;;;;;;1.03;0.73;;;-0.80;99.90;;;;;;4979502;28;20279;-79
2021/03/05 06:52:07;;;;;;;1.77;1.17;;;-0.80;99.90;;;;;;4986849;28;20263;-79
2021/03/05 06:54:38;;;;;;;2.17;1.20;;;-0.70;99.90;;;;;;4986618;28;20193;-78
2021/03/05 06:57:05;;;;;;;0.77;0.43;;;-0.80;99.90;;;;;;4978545;28;20188;-78
2021/03/05 06:59:36;;;;;;;2.33;1.27;;;-0.70;99.90;;;;;;4979220;28;20187;-78
2021/03/05 07:02:03;;;;;;;2.73;0.67;;;-0.70;99.90;;;;;;4979618;28;20698;-80
2021/03/05 07:04:30;;;;;;;0.67;0.67;;;-0.70;99.90;;;;;;4986257;28;20176;-78
2021/03/05 07:07:01;;;;;;;0.80;0.80;;;-0.70;99.90;;;;;;4979158;28;20990;-79
2021/03/05 07:09:35;;;;;;;5.10;1.57;;;-0.70;99.90;;;;;;4978414;28;20592;-79
2021/03/05 07:12:07;;;;;;;0.70;0.70;;;-0.60;99.90;;;;;;4979922;28;20278;-79
2021/03/05 07:14:34;;;;;;;2.17;1.17;;;-0.50;99.90;;;;;;4989074;28;20188;-78
2021/03/05 07:17:00;;;;;;;1.17;0.80;;;-0.60;99.90;;;;;;4982360;28;20199;-80
2021/03/05 07:19:35;;;;;;;1.33;0.83;;;-0.50;99.90;;;;;;4981987;28;20255;-79
2021/03/05 07:22:02;;;;;;;1.60;1.50;;;-0.50;99.90;;;;;;4983135;28;20304;-79
2021/03/05 07:24:29;;;;;;;1.37;1.13;;;-0.40;99.90;;;;;;4981810;28;20191;-80
2021/03/05 07:26:59;;;;;;;1.27;1.13;;;-0.40;99.90;;;;;;4981688;28;20184;-78
2021/03/05 07:29:32;;;;;;;0.63;0.63;;;-0.50;99.90;;;;;;4980292;28;20177;-79
2021/03/05 07:32:05;;;;;;;1.90;0.97;;;-0.40;99.90;;;;;;4987358;28;20678;-80
2021/03/05 07:34:57;;;;;;;1.30;0.83;;;-0.40;99.90;;;;;;4982054;28;20181;-78
2021/03/05 07:37:37;;;;;;;1.33;0.87;;;-0.30;99.90;;;;;;4988245;28;20177;-79
2021/03/05 07:40:06;;;;;;;1.77;1.63;;;-0.20;99.90;;;;;;4982128;28;20216;-79
2021/03/05 07:42:33;;;;;;;3.13;1.27;;;-0.10;99.90;;;;;;4987117;28;20213;-79
2021/03/05 07:45:00;;;;;;;4.60;1.27;;;0.10;99.90;;;;;;4989477;28;20402;-79
2021/03/05 07:47:29;;;;;;;0.87;0.77;;;0.10;99.90;;;;;;4982623;28;20675;-81
2021/03/05 07:49:59;;;;;;;2.13;0.87;;;0.20;99.90;;;;;;4981089;28;20192;-77
2021/03/05 07:52:24;;;;;;;3.00;1.80;;;0.30;99.90;;;;;;4982554;28;20201;-80
2021/03/05 07:54:51;;;;;;;1.27;1.17;;;0.40;99.90;;;;;;4981485;28;20244;-79
2021/03/05 07:57:20;;;;;;;1.10;1.00;;;0.50;99.90;;;;;;4984052;28;20188;-80
2021/03/05 07:59:50;;;;;;;1.20;0.90;;;0.50;99.90;;;;;;4986026;28;20196;-78
2021/03/05 08:02:15;;;;;;;4.53;1.07;;;0.40;99.90;;;;;;4983193;28;20212;-78
2021/03/05 08:04:48;;;;;;;1.13;1.03;;;0.40;99.90;;;;;;4991867;28;20184;-79
2021/03/05 08:07:14;;;;;;;0.50;0.47;;;0.40;99.90;;;;;;4983421;28;20200;-80
2021/03/05 08:09:40;;;;;;;1.90;0.93;;;0.50;99.90;;;;;;4991194;28;20184;-79
2021/03/05 08:12:45;;;;;;;2.60;0.97;;;0.50;99.90;;;;;;4984989;28;20821;-81
2021/03/05 08:15:10;;;;;;;4.07;0.93;;;0.50;99.90;;;;;;4987551;28;20191;-77
2021/03/05 08:17:43;;;;;;;1.30;1.20;;;0.70;99.90;;;;;;4991465;28;20197;-80
2021/03/05 08:20:30;;;;;;;1.33;0.93;;;0.60;99.90;;;;;;4983641;28;20387;-79
2021/03/05 08:22:59;;;;;;;2.60;1.17;;;0.70;99.90;;;;;;4988735;28;20694;-79
2021/03/05 08:25:27;;;;;;;2.27;0.63;;;1.00;99.90;;;;;;4980813;28;20195;-79
2021/03/05 08:27:54;;;;;;;0.63;0.63;;;1.10;99.90;;;;;;4986312;28;20199;-78
2021/03/05 08:30:29;;;;;;;2.47;1.53;;;1.20;99.90;;;;;;4987324;28;20276;-79
2021/03/05 08:32:58;;;;;;;0.80;0.70;;;1.50;99.90;;;;;;4979661;28;20222;-79
2021/03/05 08:35:30;;;;;;;1.07;1.00;;;1.80;99.90;;;;;;4979921;28;20176;-78
2021/03/05 08:37:58;;;;;;;0.80;0.80;;;2.10;99.90;;;;;;4979468;28;20220;-79
2021/03/05 08:40:34;;;;;;;1.57;1.47;;;2.30;99.90;;;;;;4986933;28;20241;-78
2021/03/05 08:43:22;;;;;;;0.83;0.73;;;2.20;99.90;;;;;;4979479;28;20212;-81
2021/03/05 08:46:04;;;;;;;1.80;0.97;;;2.20;99.90;;;;;;4981381;28;20180;-80
2021/03/05 08:48:46;;;;;;;1.03;0.77;;;2.00;99.90;;;;;;4979542;28;20172;-79
2021/03/05 08:51:16;;;;;;;0.50;0.50;;;2.20;99.90;;;;;;4979508;28;20208;-79
2021/03/05 08:53:54;;;;;;;1.07;1.03;;;2.10;99.90;;;;;;4979692;28;20208;-79
2021/03/05 08:56:22;;;;;;;1.10;1.00;;;2.30;99.90;;;;;;4979800;28;20224;-79
2021/03/05 08:59:05;;;;;;;1.07;0.87;;;2.40;99.90;;;;;;4979360;28;20185;-80
2021/03/05 09:01:39;;;;;;;1.10;0.93;;;2.60;99.90;;;;;;4979753;28;20576;-79
2021/03/05 09:04:23;;;;;;;1.00;0.90;;;2.60;99.90;;;;;;4979732;28;20287;-77
2021/03/05 09:06:49;;;;;;;1.13;0.93;;;2.60;99.90;;;;;;4976902;28;20180;-78
2021/03/05 09:09:16;;;;;;;1.50;1.40;;;2.60;99.90;;;;;;4986145;28;20667;-80
2021/03/05 09:11:42;;;;;;;2.00;1.07;;;2.70;99.90;;;;;;4979213;28;21200;-80
2021/03/05 09:14:22;;;;;;;1.20;1.10;;;3.00;99.90;;;;;;4979968;28;20203;-79
2021/03/05 09:16:59;;;;;;;1.73;1.07;;;2.90;99.90;;;;;;4980210;28;20192;-80
2021/03/05 09:19:40;;;;;;;1.70;1.40;;;3.00;99.90;;;;;;4979444;28;20196;-80
2021/03/05 09:22:13;;;;;;;0.93;0.70;;;3.00;99.90;;;;;;4983829;28;20211;-80
2021/03/05 09:24:51;;;;;;;1.70;1.20;;;3.00;99.90;;;;;;4984232;28;20596;-79
2021/03/05 09:27:23;;;;;;;1.37;1.17;;;3.20;99.90;;;;;;4981824;28;20188;-77
2021/03/05 09:29:49;;;;;;;1.70;1.33;;;3.70;99.90;;;;;;4979156;28;20177;-80
2021/03/05 09:32:14;;;;;;;1.53;0.90;;;4.10;99.90;;;;;;4978701;28;20211;-78
2021/03/05 09:34:56;;;;;;;1.80;1.30;;;4.20;99.90;;;;;;4979403;28;20188;-79
2021/03/05 09:37:25;;;;;;;1.67;1.30;;;4.20;99.90;;;;;;4986578;28;20222;-79
2021/03/05 09:39:52;;;;;;;1.47;1.07;;;4.00;99.90;;;;;;4981234;28;20283;-79
2021/03/05 09:42:19;;;;;;;1.87;1.10;;;3.70;99.90;;;;;;4978953;28;20215;-77
2021/03/05 09:44:46;;;;;;;1.73;1.23;;;3.60;99.90;;;;;;4978825;28;20176;-78
2021/03/05 09:47:13;;;;;;;0.93;0.90;;;3.60;99.90;;;;;;4976579;28;20185;-80
2021/03/05 09:49:39;;;;;;;1.57;1.43;;;3.70;99.90;;;;;;4978980;28;20732;-80
2021/03/05 09:52:05;;;;;;;1.50;1.10;;;3.80;99.90;;;;;;4984222;28;20299;-80
2021/03/05 09:54:38;;;;;;;1.30;1.13;;;3.80;99.90;;;;;;4977936;28;20181;-80
2021/03/05 09:57:04;;;;;;;1.50;1.17;;;3.80;99.90;;;;;;4977497;28;20192;-79
2021/03/05 09:59:59;;;;;;;1.53;1.30;;;3.80;99.90;;;;;;4978069;28;20188;-78
2021/03/05 10:02:25;;;;;;;0.83;0.83;;;3.90;99.90;;;;;;4970968;28;20236;-79
2021/03/05 10:04:51;;;;;;;1.80;1.53;;;4.00;99.90;;;;;;4978495;28;20682;-81
2021/03/05 10:07:18;;;;;;;1.33;1.03;;;4.30;99.90;;;;;;4979283;28;20185;-81
2021/03/05 10:09:44;;;;;;;1.70;1.00;;;4.70;99.90;;;;;;4978585;28;21106;-79
2021/03/05 10:12:10;;;;;;;1.60;1.20;;;4.90;99.90;;;;;;4985640;28;20227;-79
2021/03/05 10:14:36;;;;;;;1.93;1.57;;;4.90;99.90;;;;;;4978321;28;20188;-80
2021/03/05 10:17:13;;;;;;;1.23;1.00;;;4.80;99.90;;;;;;4985780;28;20181;-79
2021/03/05 10:19:40;;;;;;;1.27;1.03;;;4.70;99.90;;;;;;4985215;28;20263;-81
2021/03/05 10:22:07;;;;;;;1.70;1.30;;;5.00;99.90;;;;;;4978712;28;20220;-81
2021/03/05 10:24:33;;;;;;;1.33;1.23;;;5.20;99.90;;;;;;4985565;28;20219;-80
2021/03/05 10:27:11;;;;;;;1.00;1.00;;;5.40;99.90;;;;;;4979630;28;20188;-80
2021/03/05 10:29:56;;;;;;;1.13;1.00;;;5.20;99.90;;;;;;4977230;28;20207;-82
2021/03/05 10:32:29;;;;;;;1.07;0.80;;;5.00;99.90;;;;;;4983116;28;20204;-80
2021/03/05 10:35:09;;;;;;;1.93;1.33;;;4.90;99.90;;;;;;4984647;28;20185;-79
2021/03/05 10:37:38;;;;;;;1.13;0.97;;;4.90;99.90;;;;;;4977866;28;20180;-80
2021/03/05 10:40:06;;;;;;;1.83;1.20;;;5.00;99.90;;;;;;4979172;28;20196;-82
2021/03/05 10:42:32;;;;;;;1.00;0.77;;;4.70;99.90;;;;;;4974730;28;20227;-79
2021/03/05 10:44:57;;;;;;;1.40;1.20;;;4.50;99.90;;;;;;4984705;28;20187;-79
2021/03/05 10:47:24;;;;;;;0.97;0.97;;;4.60;99.90;;;;;;4978259;28;20180;-79
2021/03/05 10:49:50;;;;;;;1.27;1.17;;;4.80;99.90;;;;;;4985534;28;20196;-79
2021/03/05 10:52:19;;;;;;;1.73;1.10;;;5.00;99.90;;;;;;4979293;28;20589;-79
2021/03/05 10:54:46;;;;;;;0.50;0.50;;;5.10;99.90;;;;;;4978797;28;20778;-81
2021/03/05 10:57:13;;;;;;;0.80;0.60;;;5.00;99.90;;;;;;4984543;28;20784;-80
2021/03/05 10:59:39;;;;;;;3.27;0.90;;;4.70;99.90;;;;;;4977235;28;20246;-79
2021/03/05 11:02:05;;;;;;;0.70;0.70;;;4.60;99.90;;;;;;4985300;28;20239;-79
2021/03/05 11:04:30;;;;;;;1.77;0.90;;;4.80;99.90;;;;;;4985494;28;20191;-80
2021/03/05 11:06:56;;;;;;;0.50;0.50;;;5.00;99.90;;;;;;4977752;28;20211;-79
2021/03/05 11:09:27;;;;;;;1.57;0.90;;;5.00;99.90;;;;;;4985237;28;20196;-80
2021/03/05 11:11:54;;;;;;;0.70;0.70;;;4.90;99.90;;;;;;4978171;28;20207;-79
2021/03/05 11:14:20;;;;;;;0.57;0.50;;;4.80;99.90;;;;;;4979896;28;20180;-80
2021/03/05 11:16:46;;;;;;;0.93;0.60;;;5.00;99.90;;;;;;4980729;28;20184;-80
2021/03/05 11:19:12;;;;;;;0.70;0.70;;;5.20;99.90;;;;;;4984431;28;20203;-78
2021/03/05 11:21:38;;;;;;;1.23;0.70;;;5.50;99.90;;;;;;4978388;28;20204;-80
2021/03/05 11:24:05;;;;;;;0.93;0.70;;;5.90;99.90;;;;;;4979132;28;20181;-79
2021/03/05 11:26:30;;;;;;;0.30;0.30;;;5.50;99.90;;;;;;4993725;28;20172;-79
2021/03/05 11:28:57;;;;;;;0.83;0.57;;;5.10;99.90;;;;;;4978495;28;20208;-80
2021/03/05 11:31:23;;;;;;;0.30;0.30;;;4.90;99.90;;;;;;4977244;28;20913;-79
2021/03/05 11:33:49;;;;;;;1.07;0.40;;;4.90;99.90;;;;;;4985074;28;20218;-79
2021/03/05 11:36:16;;;;;;;0.50;0.50;;;5.10;99.90;;;;;;4979640;28;20224;-79
2021/03/05 11:38:44;;;;;;;0.40;0.40;;;5.40;99.90;;;;;;4984845;28;20195;-78
2021/03/05 11:41:10;;;;;;;0.30;0.30;;;5.50;99.90;;;;;;4976168;28;20212;-78
2021/03/05 11:43:41;;;;;;;0.30;0.20;;;5.40;99.90;;;;;;4975432;28;20210;-78
2021/03/05 11:46:07;;;;;;;0.47;0.30;;;5.30;99.90;;;;;;4977013;28;20280;-79
2021/03/05 11:48:34;;;;;;;0.73;0.20;;;5.40;99.90;;;;;;4977748;28;20184;-79
2021/03/05 11:51:00;;;;;;;0.30;0.30;;;5.50;99.90;;;;;;4983082;28;20212;-80
2021/03/05 11:53:25;;;;;;;0.27;0.27;;;5.60;99.90;;;;;;4984165;28;20232;-79
2021/03/05 11:55:51;;;;;;;0.53;0.30;;;5.60;99.90;;;;;;4983968;28;20189;-79
2021/03/05 11:58:17;;;;;;;1.17;0.60;;;5.80;99.90;;;;;;4986094;28;20722;-79
2021/03/05 12:00:42;;;;;;;0.40;0.40;;;6.10;99.90;;;;;;4979132;28;20690;-79
2021/03/05 12:03:08;;;;;;;0.20;0.20;;;6.20;99.90;;;;;;4988456;28;20288;-79
2021/03/05 12:05:34;;;;;;;0.97;0.37;;;6.20;99.90;;;;;;4980593;28;20186;-80
2021/03/05 12:08:00;;;;;;;0.40;0.30;;;5.70;99.90;;;;;;4981102;28;20204;-79
2021/03/05 12:10:26;;;;;;;0.30;0.30;;;5.60;99.90;;;;;;4987094;28;20176;-80
2021/03/05 12:12:51;;;;;;;0.30;0.30;;;5.40;99.90;;;;;;4977827;28;20204;-80
2021/03/05 12:15:18;;;;;;;0.50;0.43;;;5.30;99.90;;;;;;4982867;28;20180;-79
2021/03/05 12:17:44;;;;;;;0.53;0.53;;;5.10;99.90;;;;;;4980563;28;20682;-80
2021/03/05 12:20:10;;;;;;;1.53;0.80;;;5.00;99.90;;;;;;4980368;28;20199;-79
2021/03/05 12:22:36;;;;;;;35.03;18.43;;;5.20;99.90;;;;;;4979325;28;20216;-80
2021/03/05 12:25:02;;;;;;;30.53;14.53;;;5.50;99.90;;;;;;4980429;28;20223;-81
2021/03/05 12:27:27;;;;;;;0.67;0.57;;;5.80;99.90;;;;;;4975279;28;20204;-82
2021/03/05 12:29:53;;;;;;;0.50;0.50;;;6.20;99.90;;;;;;4978639;28;20656;-81
2021/03/05 12:32:19;;;;;;;0.63;0.40;;;6.50;99.90;;;;;;4983537;28;20306;-82
2021/03/05 12:34:45;;;;;;;0.50;0.40;;;6.70;99.90;;;;;;4986768;28;20184;-82
2021/03/05 12:37:11;;;;;;;3.03;0.40;;;6.60;99.90;;;;;;4923746;28;20340;-80
2021/03/05 12:39:38;;;;;;;0.20;0.20;;;6.50;99.90;;;;;;4982178;28;20655;-79
2021/03/05 12:42:04;;;;;;;0.73;0.43;;;6.20;99.90;;;;;;4977725;28;20286;-78
2021/03/05 12:44:29;;;;;;;0.40;0.40;;;5.80;99.90;;;;;;4976856;28;20185;-79
2021/03/05 12:46:55;;;;;;;0.60;0.50;;;5.80;99.90;;;;;;4975755;28;20200;-80
2021/03/05 12:49:21;;;;;;;2.57;0.67;;;6.10;99.90;;;;;;4977627;28;20188;-80
2021/03/05 12:51:46;;;;;;;0.20;0.20;;;6.20;99.90;;;;;;4975885;28;20191;-80
2021/03/05 12:54:12;;;;;;;0.10;0.10;;;6.40;99.90;;;;;;4993429;28;20375;-80
2021/03/05 12:56:38;;;;;;;0.90;0.57;;;6.20;99.90;;;;;;4978755;28;20180;-79
2021/03/05 12:59:03;;;;;;;0.33;0.20;;;6.20;99.90;;;;;;4977577;28;20900;-79
2021/03/05 13:01:29;;;;;;;0.10;0.10;;;6.00;99.90;;;;;;4976424;28;20314;-79